createdAt,value
2019-02-21T00:01:50.947Z,6.78
2019-02-21T00:04:19.682Z,7.42
2019-02-21T00:06:48.404Z,6.15
2019-02-21T00:09:24.309Z,6.58
2019-02-21T00:11:55.139Z,6.87
2019-02-21T00:14:37.191Z,7.05
2019-02-21T00:17:12.297Z,7.83
2019-02-21T00:19:47.710Z,7.12
2019-02-21T00:22:16.421Z,7.37
2019-02-21T00:24:45.188Z,7.08
2019-02-21T00:27:20.058Z,7.43
2019-02-21T00:29:55.527Z,9.40
2019-02-21T00:32:30.857Z,8.58
2019-02-21T00:34:59.616Z,7.53
2019-02-21T00:37:28.343Z,9.48
2019-02-21T00:40:03.474Z,8.75
2019-02-21T00:42:32.185Z,10.05
2019-02-21T00:45:00.902Z,8.68
2019-02-21T00:47:36.740Z,8.37
2019-02-21T00:50:05.658Z,8.23
2019-02-21T00:52:34.484Z,8.55
2019-02-21T00:55:10.129Z,8.15
2019-02-21T00:57:39.851Z,9.90
2019-02-21T01:00:10.084Z,8.63
2019-02-21T01:02:45.794Z,10.28
2019-02-21T01:05:14.579Z,8.55
2019-02-21T01:07:43.328Z,9.13
2019-02-21T01:10:18.709Z,10.50
2019-02-21T01:12:47.624Z,8.33
2019-02-21T01:15:29.694Z,10.23
2019-02-21T01:18:05.473Z,10.45
2019-02-21T01:20:41.125Z,9.40
2019-02-21T01:23:09.970Z,9.40
2019-02-21T01:25:40.611Z,8.98
2019-02-21T01:28:16.195Z,10.70
2019-02-21T01:30:56.989Z,10.58
2019-02-21T01:33:28.813Z,8.25
2019-02-21T01:35:58.228Z,11.12
2019-02-21T01:38:26.944Z,9.55
2019-02-21T01:41:01.823Z,9.88
2019-02-21T01:43:30.579Z,8.10
2019-02-21T01:45:59.389Z,10.20
2019-02-21T01:48:34.571Z,7.58
2019-02-21T01:51:03.343Z,8.20
2019-02-21T01:53:32.092Z,10.55
2019-02-21T01:56:07.260Z,7.53
2019-02-21T01:58:36.032Z,8.60
2019-02-21T02:01:08.560Z,7.77
2019-02-21T02:03:42.837Z,8.40
2019-02-21T02:06:11.652Z,8.63
2019-02-21T02:08:40.386Z,9.25
2019-02-21T02:11:15.777Z,7.67
2019-02-21T02:13:44.548Z,7.90
2019-02-21T02:16:26.065Z,8.55
2019-02-21T02:19:01.793Z,6.70
2019-02-21T02:21:37.822Z,8.73
2019-02-21T02:24:06.590Z,7.78
2019-02-21T02:26:35.445Z,7.57
2019-02-21T02:29:10.720Z,6.53
2019-02-21T02:31:47.041Z,6.50
2019-02-21T02:34:22.279Z,6.53
2019-02-21T02:36:51.013Z,6.05
2019-02-21T02:39:19.777Z,6.40
2019-02-21T02:41:55.040Z,9.10
2019-02-21T02:44:23.770Z,7.92
2019-02-21T02:46:52.516Z,5.65
2019-02-21T02:49:28.038Z,7.63
2019-02-21T02:51:56.782Z,6.78
2019-02-21T02:54:25.539Z,7.95
2019-02-21T02:57:01.743Z,7.03
2019-02-21T02:59:40.340Z,8.65
2019-02-21T03:02:01.019Z,9.08
2019-02-21T03:04:36.839Z,8.75
2019-02-21T03:07:05.698Z,8.93
2019-02-21T03:09:34.431Z,9.70
2019-02-21T03:12:10.235Z,8.60
2019-02-21T03:14:39.005Z,9.83
2019-02-21T03:17:20.769Z,10.08
2019-02-21T03:19:56.238Z,9.75
2019-02-21T03:22:31.793Z,8.93
2019-02-21T03:25:00.597Z,11.08
2019-02-21T03:27:29.318Z,12.05
2019-02-21T03:30:04.238Z,10.88
2019-02-21T03:32:39.647Z,12.47
2019-02-21T03:35:16.140Z,11.75
2019-02-21T03:37:44.929Z,14.33
2019-02-21T03:40:13.844Z,11.88
2019-02-21T03:42:48.922Z,13.60
2019-02-21T03:45:17.722Z,13.20
2019-02-21T03:47:46.444Z,13.43
2019-02-21T03:50:21.782Z,13.85
2019-02-21T03:52:50.501Z,13.62
2019-02-21T03:55:19.185Z,14.15
2019-02-21T03:57:54.190Z,13.62
2019-02-21T04:00:22.963Z,14.07
2019-02-21T04:02:51.677Z,12.45
2019-02-21T04:05:27.977Z,12.70
2019-02-21T04:07:56.977Z,14.53
2019-02-21T04:10:25.778Z,15.23
2019-02-21T04:13:00.990Z,13.83
2019-02-21T04:15:29.892Z,14.47
2019-02-21T04:18:11.271Z,14.75
2019-02-21T04:20:46.854Z,14.93
2019-02-21T04:23:22.152Z,15.65
2019-02-21T04:25:50.842Z,15.72
2019-02-21T04:28:32.034Z,13.93
2019-02-21T04:31:00.805Z,16.37
2019-02-21T04:33:42.853Z,14.90
2019-02-21T04:36:11.591Z,15.63
2019-02-21T04:38:40.337Z,15.20
2019-02-21T04:41:15.938Z,15.63
2019-02-21T04:43:44.762Z,15.00
2019-02-21T04:46:13.559Z,17.03
2019-02-21T04:48:49.386Z,15.50
2019-02-21T04:51:18.141Z,15.40
2019-02-21T04:53:46.870Z,16.60
2019-02-21T04:56:22.217Z,17.23
2019-02-21T04:58:50.945Z,17.80
2019-02-21T05:01:19.725Z,15.45
2019-02-21T05:03:54.721Z,17.35
2019-02-21T05:06:24.972Z,18.50
2019-02-21T05:08:53.742Z,16.95
2019-02-21T05:11:29.055Z,17.12
2019-02-21T05:13:57.791Z,16.70
2019-02-21T05:16:39.753Z,17.67
2019-02-21T05:19:15.398Z,16.40
2019-02-21T05:21:50.521Z,18.10
2019-02-21T05:24:19.233Z,18.35
2019-02-21T05:27:09.423Z,16.15
2019-02-21T05:29:38.421Z,16.10
2019-02-21T05:32:40.613Z,18.07
2019-02-21T05:35:20.486Z,17.40
2019-02-21T05:38:33.193Z,17.30
2019-02-21T05:41:23.678Z,16.33
2019-02-21T05:44:22.347Z,19.10
2019-02-21T05:46:55.483Z,18.75
2019-02-21T05:49:53.237Z,21.52
2019-02-21T05:52:39.426Z,19.60
2019-02-21T05:55:21.401Z,17.92
2019-02-21T05:57:58.573Z,19.95
2019-02-21T06:00:44.934Z,19.17
2019-02-21T06:03:28.917Z,18.23
2019-02-21T06:06:22.058Z,21.30
2019-02-21T06:09:09.381Z,19.92
2019-02-21T06:11:58.316Z,19.77
2019-02-21T06:14:44.891Z,17.60
2019-02-21T06:21:02.988Z,18.57
2019-02-21T06:23:49.443Z,18.50
2019-02-21T06:26:34.746Z,20.48
2019-02-21T06:29:28.564Z,18.65
2019-02-21T06:32:13.877Z,17.10
2019-02-21T06:34:34.461Z,20.30
2019-02-21T06:37:16.993Z,20.70
2019-02-21T06:39:45.753Z,21.03
2019-02-21T06:42:14.514Z,21.97
2019-02-21T06:44:50.105Z,19.60
2019-02-21T06:47:19.636Z,20.30
2019-02-21T06:49:48.399Z,20.05
2019-02-21T06:52:24.329Z,22.95
2019-02-21T06:54:53.081Z,22.42
2019-02-21T06:57:21.810Z,21.52
2019-02-21T06:59:57.090Z,20.72
2019-02-21T07:02:28.041Z,22.42
2019-02-21T07:04:56.813Z,20.27
2019-02-21T07:07:31.863Z,20.62
2019-02-21T07:10:00.625Z,22.32
2019-02-21T07:12:29.441Z,20.48
2019-02-21T07:15:05.120Z,21.05
2019-02-21T07:17:33.883Z,20.85
2019-02-21T07:20:16.161Z,21.62
2019-02-21T07:22:51.843Z,21.02
2019-02-21T07:25:36.651Z,19.98
2019-02-21T07:28:11.663Z,21.48
2019-02-21T07:30:36.067Z,21.45
2019-02-21T07:33:11.818Z,22.87
2019-02-21T07:35:40.556Z,20.60
2019-02-21T07:38:23.012Z,22.07
2019-02-21T07:40:52.229Z,19.10
2019-02-21T07:43:21.082Z,20.92
2019-02-21T07:45:56.819Z,20.70
2019-02-21T07:48:25.854Z,20.80
2019-02-21T07:50:54.629Z,19.73
2019-02-21T07:53:30.797Z,20.72
2019-02-21T07:55:59.632Z,23.05
2019-02-21T07:58:28.395Z,19.30
2019-02-21T08:01:03.607Z,19.23
2019-02-21T08:03:43.793Z,20.10
2019-02-21T08:06:02.898Z,19.12
2019-02-21T08:08:38.395Z,18.82
2019-02-21T08:11:07.602Z,19.35
2019-02-21T08:13:36.388Z,17.23
2019-02-21T08:16:12.574Z,18.23
2019-02-21T08:18:48.119Z,19.98
2019-02-21T08:21:30.215Z,17.42
2019-02-21T08:23:59.315Z,18.55
2019-02-21T08:26:28.154Z,20.17
2019-02-21T08:29:05.910Z,17.92
2019-02-21T08:31:33.787Z,17.80
2019-02-21T08:34:12.924Z,20.00
2019-02-21T08:36:41.681Z,19.70
2019-02-21T08:39:22.844Z,20.30
2019-02-21T08:41:51.641Z,20.05
2019-02-21T08:44:20.396Z,19.65
2019-02-21T14:58:42.237Z,4.20
2019-02-21T15:01:11.491Z,6.30
2019-02-21T15:03:46.706Z,5.47
2019-02-21T15:06:26.725Z,5.72
2019-02-21T15:08:47.271Z,5.05
2019-02-21T15:11:22.555Z,6.05
2019-02-21T15:13:51.555Z,4.33
2019-02-21T15:16:20.620Z,5.57
2019-02-21T15:18:56.030Z,4.30
2019-02-21T15:21:24.877Z,4.33
2019-02-21T15:23:53.707Z,4.27
2019-02-21T15:26:28.577Z,4.92
2019-02-21T15:28:59.836Z,4.10
2019-02-21T15:31:27.789Z,7.65
2019-02-21T15:34:03.348Z,5.15
2019-02-21T15:36:38.162Z,4.93
2019-02-21T15:39:02.554Z,5.40
2019-02-21T15:41:38.081Z,5.80
2019-02-21T15:44:06.888Z,6.25
2019-02-21T15:46:35.694Z,4.78
2019-02-21T15:49:12.395Z,6.40
2019-02-21T15:51:41.132Z,5.28
2019-02-21T15:54:12.309Z,5.33
2019-02-21T15:56:46.958Z,5.17
2019-02-21T15:59:35.370Z,4.90
2019-02-21T16:02:11.024Z,6.40
2019-02-21T16:04:40.233Z,6.55
2019-02-21T16:07:09.738Z,5.20
2019-02-21T16:09:44.988Z,4.65
2019-02-21T16:12:14.816Z,6.58
2019-02-21T16:14:43.922Z,4.85
2019-02-21T16:17:19.239Z,6.22
2019-02-21T16:19:48.057Z,5.45
2019-02-21T16:22:16.824Z,5.20
2019-02-21T16:24:52.625Z,5.65
2019-02-21T16:27:21.433Z,5.00
2019-02-21T16:29:50.235Z,6.12
2019-02-21T16:32:25.667Z,4.90
2019-02-21T16:34:54.399Z,7.47
2019-02-21T16:37:23.243Z,5.33
2019-02-21T16:40:00.761Z,4.53
2019-02-21T16:42:28.906Z,5.95
2019-02-21T16:44:58.409Z,6.75
2019-02-21T16:47:34.252Z,5.60
2019-02-21T16:50:03.037Z,5.47
2019-02-21T16:52:31.778Z,5.00
2019-02-21T16:55:08.806Z,5.78
2019-02-21T16:57:56.968Z,5.30
2019-02-21T17:00:52.485Z,5.72
2019-02-21T17:03:10.170Z,5.33
2019-02-21T17:05:39.089Z,4.92
2019-02-21T17:08:14.621Z,5.92
2019-02-21T17:10:43.361Z,4.47
2019-02-21T17:13:13.166Z,6.22
2019-02-21T17:15:54.128Z,5.87
2019-02-21T17:18:22.895Z,5.33
2019-02-21T17:20:51.632Z,6.95
2019-02-21T17:23:27.942Z,5.78
2019-02-21T17:25:56.723Z,5.00
2019-02-21T17:28:25.536Z,5.95
2019-02-21T17:31:00.712Z,6.17
2019-02-21T17:33:29.394Z,7.20
2019-02-21T17:35:58.179Z,6.25
2019-02-21T17:38:33.491Z,5.45
2019-02-21T17:41:02.228Z,5.00
2019-02-21T17:43:30.984Z,5.10
2019-02-21T17:46:05.866Z,5.20
2019-02-21T17:48:34.668Z,6.08
2019-02-21T17:51:03.639Z,5.50
2019-02-21T17:53:38.497Z,6.05
2019-02-21T17:56:07.696Z,5.55
2019-02-21T17:58:50.877Z,6.08
2019-02-21T18:01:27.719Z,5.85
2019-02-21T18:04:03.254Z,5.95
2019-02-21T18:06:32.086Z,5.15
2019-02-21T18:09:00.883Z,5.30
2019-02-21T18:11:36.493Z,6.83
2019-02-21T18:14:05.385Z,5.62
2019-02-21T18:16:34.124Z,6.45
2019-02-21T18:19:09.893Z,6.70
2019-02-21T18:21:38.622Z,6.42
2019-02-21T18:24:07.505Z,6.35
2019-02-21T18:26:43.119Z,6.60
2019-02-21T18:29:12.488Z,6.28
2019-02-21T18:31:41.219Z,6.45
2019-02-21T18:34:16.517Z,6.40
2019-02-21T18:36:45.366Z,6.37
2019-02-21T18:39:14.568Z,7.08
2019-02-21T18:41:49.925Z,6.47
2019-02-21T18:44:18.719Z,7.35
2019-02-21T18:46:47.495Z,7.75
2019-02-21T18:49:22.976Z,6.62
2019-02-21T18:51:51.682Z,8.10
2019-02-21T18:54:20.406Z,6.80
2019-02-21T18:56:56.026Z,7.37
2019-02-21T18:59:32.110Z,8.48
2019-02-21T19:02:14.450Z,7.30
2019-02-21T19:04:43.329Z,7.58
2019-02-21T19:07:12.192Z,8.93
2019-02-21T19:09:50.253Z,7.75
2019-02-21T19:12:18.974Z,7.87
2019-02-21T19:14:48.683Z,8.58
2019-02-21T19:17:24.933Z,9.30
2019-02-21T19:19:53.831Z,7.70
2019-02-21T19:22:22.621Z,9.55
2019-02-21T19:25:00.014Z,9.48
2019-02-21T19:27:36.936Z,9.88
2019-02-21T19:29:59.544Z,8.70
2019-02-21T19:32:35.043Z,8.93
2019-02-21T19:35:03.880Z,8.73
2019-02-21T19:37:32.759Z,9.60
2019-02-21T19:40:08.796Z,11.23
2019-02-21T19:42:37.621Z,10.45
2019-02-21T19:45:06.703Z,9.68
2019-02-21T19:47:42.307Z,10.85
2019-02-21T19:50:11.169Z,10.88
2019-02-21T19:52:39.944Z,11.48
2019-02-21T19:55:15.920Z,11.73
2019-02-21T19:57:44.856Z,11.17
2019-02-21T20:00:30.702Z,9.33
2019-02-21T20:03:05.900Z,12.47
2019-02-21T20:05:41.241Z,11.50
2019-02-21T20:08:20.648Z,11.08
2019-02-21T20:10:40.652Z,10.77
2019-02-21T20:13:20.090Z,10.98
2019-02-21T20:15:48.976Z,10.65
2019-02-21T20:18:17.825Z,10.33
2019-02-21T20:20:53.492Z,12.80
2019-02-21T20:23:22.321Z,11.05
2019-02-21T20:25:51.049Z,10.90
2019-02-21T20:28:26.399Z,12.53
2019-02-21T20:31:00.557Z,12.65
2019-02-21T20:33:36.494Z,14.25
2019-02-21T20:36:05.232Z,12.80
2019-02-21T20:38:33.983Z,15.20
2019-02-21T20:41:09.871Z,12.43
2019-02-21T20:43:38.773Z,11.68
2019-02-21T20:46:07.567Z,12.65
2019-02-21T20:48:43.280Z,11.78
2019-02-21T20:51:12.020Z,11.63
2019-02-21T20:53:40.788Z,14.18
2019-02-21T20:56:16.505Z,11.85
2019-02-21T20:58:45.239Z,11.57
2019-02-21T21:01:27.113Z,11.60
2019-02-21T21:04:02.762Z,11.65
2019-02-21T21:06:38.368Z,10.90
2019-02-21T21:09:08.357Z,12.73
2019-02-21T21:11:37.101Z,11.88
2019-02-21T21:14:12.853Z,10.65
2019-02-21T21:16:41.583Z,11.20
2019-02-21T21:19:10.308Z,11.80
2019-02-21T21:21:45.481Z,12.13
2019-02-21T21:24:14.204Z,11.97
2019-02-21T21:26:42.890Z,10.15
2019-02-21T21:29:17.924Z,11.95
2019-02-21T21:31:46.611Z,11.65
2019-02-21T21:34:15.325Z,11.30
2019-02-21T21:36:50.886Z,10.97
2019-02-21T21:39:19.585Z,11.80
2019-02-21T21:41:48.328Z,12.07
2019-02-21T21:44:23.291Z,12.75
2019-02-21T21:46:52.064Z,11.40
2019-02-21T21:49:20.873Z,11.88
2019-02-21T21:51:56.524Z,13.43
2019-02-21T21:54:25.255Z,13.13
2019-02-21T21:56:53.937Z,11.97
2019-02-21T21:59:29.538Z,11.08
2019-02-21T22:02:04.737Z,12.23
2019-02-21T22:04:46.531Z,11.38
2019-02-21T22:07:15.342Z,10.90
2019-02-21T22:09:44.291Z,10.20
2019-02-21T22:12:19.990Z,9.70
2019-02-21T22:14:48.746Z,10.80
2019-02-21T22:17:17.456Z,11.30
2019-02-21T22:19:53.198Z,10.75
2019-02-21T22:22:21.896Z,10.63
2019-02-21T22:24:50.602Z,9.88
2019-02-21T22:27:25.507Z,9.25
2019-02-21T22:29:54.226Z,10.28
2019-02-21T22:32:22.931Z,10.20
2019-02-21T22:34:58.359Z,9.33
2019-02-21T22:37:27.078Z,10.10
2019-02-21T22:39:55.852Z,9.68
2019-02-21T22:42:31.365Z,9.53
2019-02-21T22:45:00.136Z,10.15
2019-02-21T22:47:29.048Z,9.33
2019-02-21T22:50:04.573Z,9.15
2019-02-21T22:52:33.323Z,9.85
2019-02-21T22:55:09.875Z,9.88
2019-02-21T22:57:39.118Z,9.90
2019-02-21T23:00:50.214Z,8.95
2019-02-21T23:03:32.361Z,8.48
2019-02-21T23:06:28.356Z,8.83
2019-02-21T23:09:03.946Z,9.33
2019-02-21T23:11:32.658Z,8.78
2019-02-21T23:14:01.827Z,9.50
2019-02-21T23:16:37.529Z,8.40
2019-02-21T23:19:06.245Z,8.40
2019-02-21T23:21:35.026Z,7.42
2019-02-21T23:24:10.384Z,7.10
2019-02-21T23:26:39.105Z,6.33
2019-02-21T23:29:07.882Z,6.67
2019-02-21T23:31:42.794Z,5.95
2019-02-21T23:34:29.230Z,6.17
2019-02-21T23:37:04.766Z,6.23
2019-02-21T23:39:38.289Z,5.30
2019-02-21T23:42:04.873Z,5.53
2019-02-21T23:44:39.935Z,5.95
2019-02-21T23:47:08.657Z,5.90
2019-02-21T23:49:37.328Z,5.75
2019-02-21T23:52:12.478Z,6.23
2019-02-21T23:54:41.209Z,5.53
2019-02-21T23:57:09.951Z,6.30
2019-02-21T23:59:44.845Z,5.35
